createdAt,value
2022-07-29T00:03:04.500Z,28.42
2022-07-29T00:07:59.109Z,28.66
2022-07-29T00:12:54.822Z,28.42
2022-07-29T00:17:49.396Z,28.28
2022-07-29T00:22:43.190Z,28.44
2022-07-29T00:27:39.700Z,28.65
2022-07-29T00:32:33.786Z,28.53
2022-07-29T00:37:27.640Z,28.50
2022-07-29T00:42:22.894Z,28.36
2022-07-29T00:47:17.164Z,28.41
2022-07-29T00:52:13.169Z,28.29
2022-07-29T00:57:10.293Z,28.19
2022-07-29T01:02:04.917Z,28.43
2022-07-29T01:06:58.893Z,28.35
2022-07-29T01:11:53.229Z,28.29
2022-07-29T01:17:03.629Z,28.19
2022-07-29T01:22:00.844Z,28.27
2022-07-29T01:27:33.166Z,28.52
2022-07-29T01:32:30.420Z,28.41
2022-07-29T01:37:38.956Z,28.20
2022-07-29T01:42:44.915Z,28.40
2022-07-29T01:48:00.384Z,28.19
2022-07-29T01:53:02.220Z,28.17
2022-07-29T01:57:56.401Z,28.12
2022-07-29T02:02:51.340Z,27.96
2022-07-29T02:07:46.444Z,27.93
2022-07-29T02:12:41.260Z,27.84
2022-07-29T02:17:59.642Z,27.69
2022-07-29T02:22:55.149Z,27.42
2022-07-29T02:27:51.182Z,27.44
2022-07-29T02:32:48.623Z,27.53
2022-07-29T02:37:44.272Z,27.34
2022-07-29T02:42:40.589Z,27.38
2022-07-29T02:47:55.286Z,27.42
2022-07-29T02:53:09.429Z,27.15
2022-07-29T02:58:07.603Z,27.15
2022-07-29T03:03:05.877Z,26.90
2022-07-29T03:08:03.459Z,27.27
2022-07-29T03:13:02.879Z,27.34
2022-07-29T03:17:56.705Z,27.38
2022-07-29T03:22:50.077Z,27.47
2022-07-29T03:27:43.833Z,27.42
2022-07-29T03:32:38.805Z,27.36
2022-07-29T03:37:33.086Z,27.29
2022-07-29T03:42:34.069Z,27.48
2022-07-29T03:47:50.106Z,27.37
2022-07-29T03:52:45.230Z,27.40
2022-07-29T03:57:41.175Z,27.36
2022-07-29T04:02:35.282Z,27.42
2022-07-29T04:07:28.851Z,27.55
2022-07-29T04:12:22.617Z,27.63
2022-07-29T04:17:16.235Z,27.46
2022-07-29T04:22:11.383Z,27.43
2022-07-29T04:27:06.004Z,27.38
2022-07-29T04:31:59.092Z,27.31
2022-07-29T04:36:52.152Z,27.15
2022-07-29T04:41:50.379Z,27.11
2022-07-29T04:46:43.740Z,27.23
2022-07-29T04:51:36.470Z,27.34
2022-07-29T04:56:30.557Z,27.34
2022-07-29T05:01:28.604Z,27.31
2022-07-29T05:06:23.110Z,27.26
2022-07-29T05:11:21.315Z,27.35
2022-07-29T05:16:15.881Z,27.41
2022-07-29T05:21:08.920Z,27.47
2022-07-29T05:26:03.759Z,27.54
2022-07-29T05:30:58.216Z,27.40
2022-07-29T05:35:52.030Z,27.34
2022-07-29T05:40:45.974Z,27.61
2022-07-29T05:45:50.025Z,27.61
2022-07-29T05:50:44.484Z,27.56
2022-07-29T05:55:40.976Z,27.70
2022-07-29T06:00:38.996Z,27.56
2022-07-29T06:05:33.495Z,27.41
2022-07-29T06:10:27.381Z,27.53
2022-07-29T06:15:20.132Z,27.65
2022-07-29T06:20:15.353Z,27.63
2022-07-29T06:25:10.817Z,27.58
2022-07-29T06:30:05.406Z,27.62
2022-07-29T06:35:24.494Z,27.62
2022-07-29T06:40:32.156Z,27.64
2022-07-29T06:45:25.995Z,27.73
2022-07-29T06:50:21.300Z,27.84
2022-07-29T06:55:25.128Z,27.79
2022-07-29T07:00:19.521Z,27.76
2022-07-29T07:05:13.812Z,27.99
2022-07-29T07:10:09.144Z,27.91
2022-07-29T07:15:03.093Z,28.05
2022-07-29T07:19:56.974Z,28.10
2022-07-29T07:24:51.005Z,28.15
2022-07-29T07:29:44.164Z,28.22
2022-07-29T07:34:39.664Z,28.28
2022-07-29T07:39:32.951Z,28.37
2022-07-29T07:44:26.650Z,28.43
2022-07-29T07:49:21.073Z,28.48
2022-07-29T07:54:15.425Z,28.39
2022-07-29T07:59:09.593Z,28.58
2022-07-29T08:04:05.329Z,28.42
2022-07-29T08:09:19.530Z,28.63
2022-07-29T08:14:13.001Z,28.54
2022-07-29T08:19:07.829Z,28.60
2022-07-29T08:24:20.092Z,28.52
2022-07-29T08:29:18.356Z,28.59
2022-07-29T08:34:13.497Z,28.63
2022-07-29T08:39:08.084Z,28.75
2022-07-29T08:44:01.497Z,28.58
2022-07-29T08:48:57.081Z,28.74
2022-07-29T08:53:52.495Z,28.84
2022-07-29T08:58:50.673Z,28.79
2022-07-29T09:03:50.520Z,28.86
2022-07-29T09:08:44.723Z,28.80
2022-07-29T09:13:39.734Z,28.88
2022-07-29T09:18:37.940Z,28.77
2022-07-29T09:23:37.269Z,28.87
2022-07-29T09:28:31.760Z,28.87
2022-07-29T09:33:26.739Z,28.87
2022-07-29T09:38:21.495Z,28.87
2022-07-29T09:43:15.828Z,28.79
2022-07-29T09:48:41.942Z,28.78
2022-07-29T09:53:41.269Z,28.83
2022-07-29T09:58:35.732Z,28.87
2022-07-29T10:03:29.120Z,28.88
2022-07-29T10:08:28.480Z,28.80
2022-07-29T10:13:22.309Z,28.83
2022-07-29T10:18:18.995Z,28.77
2022-07-29T10:23:11.959Z,28.92
2022-07-29T10:28:08.086Z,28.94
2022-07-29T10:33:30.453Z,28.95
2022-07-29T10:38:54.054Z,28.95
2022-07-29T10:43:51.120Z,28.96
2022-07-29T10:49:06.262Z,28.99
2022-07-29T10:54:06.673Z,29.00
2022-07-29T10:59:23.606Z,29.01
2022-07-29T11:04:18.229Z,29.01
2022-07-29T11:09:35.115Z,28.97
2022-07-29T11:14:54.007Z,29.06
2022-07-29T11:19:52.050Z,29.06
2022-07-29T11:24:50.249Z,29.01
2022-07-29T11:30:07.642Z,29.05
2022-07-29T11:40:42.675Z,28.95
2022-07-29T11:45:49.529Z,29.07
2022-07-29T11:50:48.313Z,29.09
2022-07-29T12:00:57.110Z,29.09
2022-07-29T12:05:51.955Z,29.22
2022-07-29T12:07:01.567Z,29.08
2022-07-29T12:10:45.812Z,29.09
2022-07-29T12:15:47.089Z,29.23
2022-07-29T12:20:40.852Z,29.20
2022-07-29T12:25:37.387Z,29.19
2022-07-29T12:30:58.324Z,29.18
2022-07-29T12:36:17.673Z,29.09
2022-07-29T12:41:12.687Z,29.12
2022-07-29T12:46:16.741Z,29.21
2022-07-29T12:51:13.529Z,29.09
2022-07-29T12:56:20.962Z,29.08
2022-07-29T13:01:22.651Z,29.07
2022-07-29T13:06:35.032Z,29.22
2022-07-29T13:11:36.851Z,29.21
2022-07-29T13:16:30.847Z,29.16
2022-07-29T13:21:24.970Z,29.22
2022-07-29T13:26:20.690Z,29.29
2022-07-29T13:31:14.284Z,29.19
2022-07-29T13:36:08.243Z,29.32
2022-07-29T13:41:03.734Z,29.28
2022-07-29T13:45:58.161Z,29.21
2022-07-29T13:50:51.976Z,29.34
2022-07-29T13:55:44.869Z,29.33
2022-07-29T14:00:38.199Z,29.30
2022-07-29T14:05:32.214Z,29.33
2022-07-29T14:10:25.784Z,29.32
2022-07-29T14:15:19.695Z,29.43
2022-07-29T14:20:13.405Z,29.46
2022-07-29T14:25:14.578Z,29.47
2022-07-29T14:30:13.173Z,29.46
2022-07-29T14:35:09.364Z,29.42
2022-07-29T14:40:04.716Z,29.56
2022-07-29T14:44:58.772Z,29.49
2022-07-29T14:49:53.271Z,29.15
2022-07-29T14:54:47.603Z,29.34
2022-07-29T14:59:41.627Z,29.37
2022-07-29T15:04:35.065Z,29.36
2022-07-29T15:09:28.844Z,29.43
2022-07-29T15:14:22.229Z,29.34
2022-07-29T15:19:16.310Z,29.24
2022-07-29T15:24:09.542Z,29.37
2022-07-29T15:29:03.981Z,29.26
2022-07-29T15:34:01.270Z,29.13
2022-07-29T15:38:59.048Z,29.19
2022-07-29T15:43:52.128Z,29.19
2022-07-29T15:48:46.422Z,29.25
2022-07-29T15:53:39.705Z,29.17
2022-07-29T15:58:33.691Z,29.08
2022-07-29T16:03:28.518Z,28.88
2022-07-29T16:08:22.568Z,28.94
2022-07-29T16:13:17.806Z,28.86
2022-07-29T16:18:14.941Z,28.88
2022-07-29T16:23:12.887Z,28.95
2022-07-29T16:28:07.225Z,28.58
2022-07-29T16:33:01.798Z,28.75
2022-07-29T16:37:58.805Z,28.52
2022-07-29T16:42:53.172Z,28.84
2022-07-29T16:47:46.581Z,28.76
2022-07-29T16:52:40.988Z,28.79
2022-07-29T16:57:34.548Z,28.84
2022-07-29T17:02:31.536Z,28.84
2022-07-29T17:07:25.594Z,28.84
2022-07-29T17:12:19.123Z,28.86
2022-07-29T17:17:15.707Z,28.72
2022-07-29T17:22:19.239Z,28.72
2022-07-29T17:27:13.528Z,28.70
2022-07-29T17:32:09.577Z,28.61
2022-07-29T17:37:04.904Z,28.66
2022-07-29T17:41:59.937Z,28.61
2022-07-29T17:46:53.934Z,28.65
2022-07-29T17:51:47.903Z,28.72
2022-07-29T17:56:41.946Z,28.83
2022-07-29T18:01:34.830Z,28.84
2022-07-29T18:06:28.351Z,28.85
2022-07-29T18:11:26.304Z,28.86
2022-07-29T18:16:19.538Z,28.81
2022-07-29T18:21:17.231Z,28.90
2022-07-29T18:26:30.966Z,28.84
2022-07-29T18:31:25.224Z,28.74
2022-07-29T18:36:19.043Z,28.90
2022-07-29T18:41:13.032Z,28.91
2022-07-29T18:46:07.482Z,28.82
2022-07-29T18:51:09.273Z,28.85
2022-07-29T18:56:04.500Z,28.72
2022-07-29T19:00:58.549Z,28.72
2022-07-29T19:05:53.749Z,28.87
2022-07-29T19:10:47.828Z,28.79
2022-07-29T19:15:45.258Z,28.89
2022-07-29T19:20:40.408Z,28.81
2022-07-29T19:25:35.873Z,28.91
2022-07-29T19:30:31.447Z,28.95
2022-07-29T19:35:26.733Z,28.84
2022-07-29T19:40:23.229Z,28.81
2022-07-29T19:45:23.001Z,28.66
2022-07-29T19:50:21.668Z,28.59
2022-07-29T19:55:16.436Z,28.42
2022-07-29T20:00:13.883Z,28.22
2022-07-29T20:05:12.322Z,28.24
2022-07-29T20:10:08.506Z,28.14
2022-07-29T20:15:02.701Z,28.24
2022-07-29T20:19:57.879Z,27.93
2022-07-29T20:24:55.343Z,28.02
2022-07-29T20:29:49.397Z,28.08
2022-07-29T20:34:44.084Z,28.11
2022-07-29T20:39:38.745Z,27.99
2022-07-29T20:44:32.308Z,27.94
2022-07-29T20:49:26.327Z,27.89
2022-07-29T20:54:20.186Z,27.85
2022-07-29T20:59:14.458Z,28.11
2022-07-29T21:04:08.279Z,28.00
2022-07-29T21:09:02.566Z,28.38
2022-07-29T21:13:59.284Z,28.49
2022-07-29T21:18:55.640Z,28.42
2022-07-29T21:23:51.183Z,28.51
2022-07-29T21:28:46.660Z,28.47
2022-07-29T21:33:48.175Z,28.49
2022-07-29T21:38:42.258Z,28.55
2022-07-29T21:43:37.200Z,28.68
2022-07-29T21:48:39.106Z,28.65
2022-07-29T21:53:38.854Z,28.51
2022-07-29T21:58:35.568Z,28.72
2022-07-29T22:03:31.948Z,28.69
2022-07-29T22:08:27.086Z,28.63
2022-07-29T22:13:24.478Z,28.72
2022-07-29T22:18:19.511Z,28.70
2022-07-29T22:23:16.767Z,28.69
2022-07-29T22:28:11.915Z,28.74
2022-07-29T22:33:06.744Z,28.70
2022-07-29T22:38:00.952Z,28.57
2022-07-29T22:42:55.093Z,28.58
2022-07-29T22:47:49.489Z,28.25
2022-07-29T22:52:44.500Z,27.90
2022-07-29T22:57:38.332Z,28.16
2022-07-29T23:02:32.477Z,28.08
2022-07-29T23:07:25.395Z,27.85
2022-07-29T23:12:19.226Z,28.03
2022-07-29T23:17:12.886Z,27.94
2022-07-29T23:22:06.433Z,27.98
2022-07-29T23:27:00.667Z,27.86
2022-07-29T23:31:58.941Z,27.96
2022-07-29T23:36:53.053Z,27.89
2022-07-29T23:41:47.158Z,27.88
2022-07-29T23:46:41.338Z,27.70
2022-07-29T23:51:34.969Z,27.74
2022-07-29T23:56:28.949Z,27.70
